sensor_id;sensor_type;location;lat;lon;timestamp;P1;durP1;ratioP1;P2;durP2;ratioP2
64894;SDS011;51588;53.702;10.208;2023-06-22T00:01:54;2.30;;;2.10;;
64894;SDS011;51588;53.702;10.208;2023-06-22T00:04:21;2.50;;;2.30;;
64894;SDS011;51588;53.702;10.208;2023-06-22T00:06:47;2.57;;;2.37;;
64894;SDS011;51588;53.702;10.208;2023-06-22T00:09:13;2.30;;;2.10;;
64894;SDS011;51588;53.702;10.208;2023-06-22T00:11:40;3.47;;;2.33;;
64894;SDS011;51588;53.702;10.208;2023-06-22T00:14:06;2.47;;;2.27;;
64894;SDS011;51588;53.702;10.208;2023-06-22T00:16:34;2.60;;;2.40;;
64894;SDS011;51588;53.702;10.208;2023-06-22T00:19:00;2.40;;;2.20;;
64894;SDS011;51588;53.702;10.208;2023-06-22T00:21:28;2.30;;;2.10;;
64894;SDS011;51588;53.702;10.208;2023-06-22T00:23:54;2.53;;;2.30;;
64894;SDS011;51588;53.702;10.208;2023-06-22T00:26:22;2.40;;;2.20;;
64894;SDS011;51588;53.702;10.208;2023-06-22T00:28:48;2.43;;;2.23;;
64894;SDS011;51588;53.702;10.208;2023-06-22T00:31:15;2.50;;;2.30;;
64894;SDS011;51588;53.702;10.208;2023-06-22T00:33:43;2.70;;;2.30;;
64894;SDS011;51588;53.702;10.208;2023-06-22T00:36:09;2.60;;;2.40;;
64894;SDS011;51588;53.702;10.208;2023-06-22T00:38:38;2.77;;;2.53;;
64894;SDS011;51588;53.702;10.208;2023-06-22T00:41:05;2.47;;;2.27;;
64894;SDS011;51588;53.702;10.208;2023-06-22T00:43:31;2.23;;;2.03;;
64894;SDS011;51588;53.702;10.208;2023-06-22T00:45:57;2.50;;;2.30;;
64894;SDS011;51588;53.702;10.208;2023-06-22T00:48:24;2.73;;;2.13;;
64894;SDS011;51588;53.702;10.208;2023-06-22T00:50:52;2.60;;;2.40;;
64894;SDS011;51588;53.702;10.208;2023-06-22T00:53:21;2.67;;;2.20;;
64894;SDS011;51588;53.702;10.208;2023-06-22T00:55:48;2.33;;;2.13;;
64894;SDS011;51588;53.702;10.208;2023-06-22T00:58:16;2.10;;;1.90;;
64894;SDS011;51588;53.702;10.208;2023-06-22T01:00:46;2.37;;;2.17;;
64894;SDS011;51588;53.702;10.208;2023-06-22T01:03:13;2.47;;;2.27;;
64894;SDS011;51588;53.702;10.208;2023-06-22T01:05:41;2.40;;;2.20;;
64894;SDS011;51588;53.702;10.208;2023-06-22T01:08:23;3.03;;;2.10;;
64894;SDS011;51588;53.702;10.208;2023-06-22T01:10:55;2.77;;;2.40;;
64894;SDS011;51588;53.702;10.208;2023-06-22T01:13:25;3.53;;;2.37;;
64894;SDS011;51588;53.702;10.208;2023-06-22T01:15:54;2.63;;;2.43;;
64894;SDS011;51588;53.702;10.208;2023-06-22T01:18:22;2.57;;;2.37;;
64894;SDS011;51588;53.702;10.208;2023-06-22T01:20:50;2.63;;;2.20;;
64894;SDS011;51588;53.702;10.208;2023-06-22T01:23:20;2.50;;;2.30;;
64894;SDS011;51588;53.702;10.208;2023-06-22T01:25:53;2.43;;;2.23;;
64894;SDS011;51588;53.702;10.208;2023-06-22T01:28:30;2.33;;;2.13;;
64894;SDS011;51588;53.702;10.208;2023-06-22T01:30:57;3.93;;;2.23;;
64894;SDS011;51588;53.702;10.208;2023-06-22T01:33:31;2.40;;;2.20;;
64894;SDS011;51588;53.702;10.208;2023-06-22T01:35:59;2.40;;;2.20;;
64894;SDS011;51588;53.702;10.208;2023-06-22T01:38:26;2.40;;;2.20;;
64894;SDS011;51588;53.702;10.208;2023-06-22T01:40:54;2.80;;;2.20;;
64894;SDS011;51588;53.702;10.208;2023-06-22T01:43:20;3.40;;;2.17;;
64894;SDS011;51588;53.702;10.208;2023-06-22T01:45:49;2.43;;;2.23;;
64894;SDS011;51588;53.702;10.208;2023-06-22T01:48:16;2.30;;;2.10;;
64894;SDS011;51588;53.702;10.208;2023-06-22T01:50:42;2.27;;;2.07;;
64894;SDS011;51588;53.702;10.208;2023-06-22T01:53:09;2.60;;;2.40;;
64894;SDS011;51588;53.702;10.208;2023-06-22T01:55:35;2.60;;;2.37;;
64894;SDS011;51588;53.702;10.208;2023-06-22T01:58:01;2.80;;;2.07;;
64894;SDS011;51588;53.702;10.208;2023-06-22T02:00:28;2.17;;;1.97;;
64894;SDS011;51588;53.702;10.208;2023-06-22T02:02:59;2.50;;;2.27;;
64894;SDS011;51588;53.702;10.208;2023-06-22T02:05:28;2.50;;;2.23;;
64894;SDS011;51588;53.702;10.208;2023-06-22T02:07:58;2.50;;;2.20;;
64894;SDS011;51588;53.702;10.208;2023-06-22T02:10:25;2.50;;;2.30;;
64894;SDS011;51588;53.702;10.208;2023-06-22T02:12:53;2.40;;;2.20;;
64894;SDS011;51588;53.702;10.208;2023-06-22T02:15:20;2.17;;;1.97;;
64894;SDS011;51588;53.702;10.208;2023-06-22T02:17:47;2.40;;;2.13;;
64894;SDS011;51588;53.702;10.208;2023-06-22T02:20:15;2.67;;;2.37;;
64894;SDS011;51588;53.702;10.208;2023-06-22T02:22:41;3.00;;;2.70;;
64894;SDS011;51588;53.702;10.208;2023-06-22T02:25:08;2.53;;;2.33;;
64894;SDS011;51588;53.702;10.208;2023-06-22T02:27:34;2.60;;;2.40;;
64894;SDS011;51588;53.702;10.208;2023-06-22T02:30:01;2.97;;;2.43;;
64894;SDS011;51588;53.702;10.208;2023-06-22T02:32:27;2.87;;;2.63;;
64894;SDS011;51588;53.702;10.208;2023-06-22T02:34:53;2.20;;;2.00;;
64894;SDS011;51588;53.702;10.208;2023-06-22T02:37:21;3.10;;;2.20;;
64894;SDS011;51588;53.702;10.208;2023-06-22T02:39:50;4.40;;;2.60;;
64894;SDS011;51588;53.702;10.208;2023-06-22T02:42:16;2.80;;;2.33;;
64894;SDS011;51588;53.702;10.208;2023-06-22T02:44:45;2.93;;;2.57;;
64894;SDS011;51588;53.702;10.208;2023-06-22T02:47:12;2.43;;;2.20;;
64894;SDS011;51588;53.702;10.208;2023-06-22T02:49:38;2.80;;;2.20;;
64894;SDS011;51588;53.702;10.208;2023-06-22T02:52:05;2.40;;;2.10;;
64894;SDS011;51588;53.702;10.208;2023-06-22T02:54:32;2.80;;;2.40;;
64894;SDS011;51588;53.702;10.208;2023-06-22T02:56:59;2.90;;;2.60;;
64894;SDS011;51588;53.702;10.208;2023-06-22T02:59:28;2.53;;;2.33;;
64894;SDS011;51588;53.702;10.208;2023-06-22T03:01:54;4.10;;;2.10;;
64894;SDS011;51588;53.702;10.208;2023-06-22T03:04:21;3.93;;;2.60;;
64894;SDS011;51588;53.702;10.208;2023-06-22T03:06:47;3.30;;;2.47;;
64894;SDS011;51588;53.702;10.208;2023-06-22T03:09:16;2.93;;;2.50;;
64894;SDS011;51588;53.702;10.208;2023-06-22T03:11:44;2.40;;;2.20;;
64894;SDS011;51588;53.702;10.208;2023-06-22T03:14:10;2.23;;;2.00;;
64894;SDS011;51588;53.702;10.208;2023-06-22T03:16:37;4.43;;;2.20;;
64894;SDS011;51588;53.702;10.208;2023-06-22T03:19:03;2.57;;;2.23;;
64894;SDS011;51588;53.702;10.208;2023-06-22T03:21:29;3.90;;;2.40;;
64894;SDS011;51588;53.702;10.208;2023-06-22T03:23:57;2.93;;;2.63;;
64894;SDS011;51588;53.702;10.208;2023-06-22T03:26:23;2.83;;;2.53;;
64894;SDS011;51588;53.702;10.208;2023-06-22T03:28:53;3.50;;;2.40;;
64894;SDS011;51588;53.702;10.208;2023-06-22T03:31:19;2.70;;;2.50;;
64894;SDS011;51588;53.702;10.208;2023-06-22T03:33:46;2.90;;;2.20;;
64894;SDS011;51588;53.702;10.208;2023-06-22T03:36:13;2.93;;;2.60;;
64894;SDS011;51588;53.702;10.208;2023-06-22T03:38:39;2.53;;;2.33;;
64894;SDS011;51588;53.702;10.208;2023-06-22T03:41:05;2.40;;;2.20;;
64894;SDS011;51588;53.702;10.208;2023-06-22T03:43:32;2.30;;;2.10;;
64894;SDS011;51588;53.702;10.208;2023-06-22T03:45:59;3.20;;;2.90;;
64894;SDS011;51588;53.702;10.208;2023-06-22T03:48:26;3.23;;;2.20;;
64894;SDS011;51588;53.702;10.208;2023-06-22T03:50:52;3.23;;;2.30;;
64894;SDS011;51588;53.702;10.208;2023-06-22T03:53:19;2.37;;;2.23;;
64894;SDS011;51588;53.702;10.208;2023-06-22T03:55:48;2.80;;;2.20;;
64894;SDS011;51588;53.702;10.208;2023-06-22T03:58:15;2.83;;;2.60;;
64894;SDS011;51588;53.702;10.208;2023-06-22T04:00:42;3.07;;;2.77;;
64894;SDS011;51588;53.702;10.208;2023-06-22T04:03:09;3.30;;;2.40;;
64894;SDS011;51588;53.702;10.208;2023-06-22T04:05:37;2.40;;;2.20;;
64894;SDS011;51588;53.702;10.208;2023-06-22T04:08:04;2.63;;;2.43;;
64894;SDS011;51588;53.702;10.208;2023-06-22T04:10:30;3.23;;;2.90;;
64894;SDS011;51588;53.702;10.208;2023-06-22T04:12:57;3.00;;;2.70;;
64894;SDS011;51588;53.702;10.208;2023-06-22T04:15:23;2.83;;;2.60;;
64894;SDS011;51588;53.702;10.208;2023-06-22T04:17:50;3.03;;;2.83;;
64894;SDS011;51588;53.702;10.208;2023-06-22T04:20:17;2.60;;;2.40;;
64894;SDS011;51588;53.702;10.208;2023-06-22T04:22:44;4.03;;;2.50;;
64894;SDS011;51588;53.702;10.208;2023-06-22T04:25:10;3.50;;;2.40;;
64894;SDS011;51588;53.702;10.208;2023-06-22T04:27:36;3.27;;;2.70;;
64894;SDS011;51588;53.702;10.208;2023-06-22T04:30:05;5.73;;;2.60;;
64894;SDS011;51588;53.702;10.208;2023-06-22T04:32:32;3.40;;;2.77;;
64894;SDS011;51588;53.702;10.208;2023-06-22T04:34:58;2.80;;;2.60;;
64894;SDS011;51588;53.702;10.208;2023-06-22T04:37:26;3.13;;;2.83;;
64894;SDS011;51588;53.702;10.208;2023-06-22T04:39:53;3.40;;;2.50;;
64894;SDS011;51588;53.702;10.208;2023-06-22T04:42:19;3.17;;;2.60;;
64894;SDS011;51588;53.702;10.208;2023-06-22T04:44:46;2.97;;;2.67;;
64894;SDS011;51588;53.702;10.208;2023-06-22T04:47:12;2.60;;;2.40;;
64894;SDS011;51588;53.702;10.208;2023-06-22T04:49:38;2.90;;;2.60;;
64894;SDS011;51588;53.702;10.208;2023-06-22T04:52:06;3.70;;;2.47;;
64894;SDS011;51588;53.702;10.208;2023-06-22T04:54:34;5.00;;;2.70;;
64894;SDS011;51588;53.702;10.208;2023-06-22T04:57:01;2.97;;;2.70;;
64894;SDS011;51588;53.702;10.208;2023-06-22T04:59:28;2.40;;;2.20;;
64894;SDS011;51588;53.702;10.208;2023-06-22T05:01:55;3.10;;;2.80;;
64894;SDS011;51588;53.702;10.208;2023-06-22T05:04:21;2.67;;;2.47;;
64894;SDS011;51588;53.702;10.208;2023-06-22T05:06:49;3.13;;;2.83;;
64894;SDS011;51588;53.702;10.208;2023-06-22T05:09:15;3.00;;;2.50;;
64894;SDS011;51588;53.702;10.208;2023-06-22T05:11:43;2.60;;;2.40;;
64894;SDS011;51588;53.702;10.208;2023-06-22T05:14:10;5.17;;;2.40;;
64894;SDS011;51588;53.702;10.208;2023-06-22T05:16:36;4.83;;;2.60;;
64894;SDS011;51588;53.702;10.208;2023-06-22T05:19:03;2.63;;;2.43;;
64894;SDS011;51588;53.702;10.208;2023-06-22T05:21:30;3.07;;;2.47;;
64894;SDS011;51588;53.702;10.208;2023-06-22T05:23:56;3.10;;;2.60;;
64894;SDS011;51588;53.702;10.208;2023-06-22T05:26:25;3.00;;;2.80;;
64894;SDS011;51588;53.702;10.208;2023-06-22T05:28:53;2.50;;;2.30;;
64894;SDS011;51588;53.702;10.208;2023-06-22T05:31:20;2.97;;;2.77;;
64894;SDS011;51588;53.702;10.208;2023-06-22T05:33:46;3.00;;;2.70;;
64894;SDS011;51588;53.702;10.208;2023-06-22T05:36:13;2.90;;;2.70;;
64894;SDS011;51588;53.702;10.208;2023-06-22T05:38:40;3.10;;;2.80;;
64894;SDS011;51588;53.702;10.208;2023-06-22T05:41:07;2.90;;;2.63;;
64894;SDS011;51588;53.702;10.208;2023-06-22T05:43:33;2.87;;;2.60;;
64894;SDS011;51588;53.702;10.208;2023-06-22T05:46:01;3.03;;;2.70;;
64894;SDS011;51588;53.702;10.208;2023-06-22T05:48:28;3.03;;;2.60;;
64894;SDS011;51588;53.702;10.208;2023-06-22T05:50:54;4.40;;;2.67;;
64894;SDS011;51588;53.702;10.208;2023-06-22T05:53:21;6.03;;;2.87;;
64894;SDS011;51588;53.702;10.208;2023-06-22T05:55:47;3.00;;;2.70;;
64894;SDS011;51588;53.702;10.208;2023-06-22T05:58:13;4.40;;;2.90;;
64894;SDS011;51588;53.702;10.208;2023-06-22T06:00:40;3.13;;;2.83;;
64894;SDS011;51588;53.702;10.208;2023-06-22T06:03:09;4.93;;;2.73;;
64894;SDS011;51588;53.702;10.208;2023-06-22T06:05:36;2.77;;;2.57;;
64894;SDS011;51588;53.702;10.208;2023-06-22T06:08:03;4.10;;;3.23;;
64894;SDS011;51588;53.702;10.208;2023-06-22T06:10:31;12.83;;;5.07;;
64894;SDS011;51588;53.702;10.208;2023-06-22T06:12:57;16.50;;;7.40;;
64894;SDS011;51588;53.702;10.208;2023-06-22T06:15:23;19.93;;;6.90;;
64894;SDS011;51588;53.702;10.208;2023-06-22T06:17:51;15.73;;;6.13;;
64894;SDS011;51588;53.702;10.208;2023-06-22T06:20:19;10.67;;;5.30;;
64894;SDS011;51588;53.702;10.208;2023-06-22T06:22:46;22.37;;;5.83;;
64894;SDS011;51588;53.702;10.208;2023-06-22T06:25:12;10.10;;;5.30;;
64894;SDS011;51588;53.702;10.208;2023-06-22T06:27:41;12.30;;;5.43;;
64894;SDS011;51588;53.702;10.208;2023-06-22T06:30:07;12.37;;;5.37;;
64894;SDS011;51588;53.702;10.208;2023-06-22T06:32:34;8.80;;;4.77;;
64894;SDS011;51588;53.702;10.208;2023-06-22T06:35:00;12.37;;;4.87;;
64894;SDS011;51588;53.702;10.208;2023-06-22T06:37:28;7.30;;;4.17;;
64894;SDS011;51588;53.702;10.208;2023-06-22T06:39:55;10.27;;;5.07;;
64894;SDS011;51588;53.702;10.208;2023-06-22T06:42:21;6.13;;;4.37;;
64894;SDS011;51588;53.702;10.208;2023-06-22T06:44:49;7.97;;;4.23;;
64894;SDS011;51588;53.702;10.208;2023-06-22T06:47:15;7.23;;;4.20;;
64894;SDS011;51588;53.702;10.208;2023-06-22T06:49:42;12.13;;;4.37;;
64894;SDS011;51588;53.702;10.208;2023-06-22T06:52:09;5.80;;;4.27;;
64894;SDS011;51588;53.702;10.208;2023-06-22T06:54:36;8.00;;;3.70;;
64894;SDS011;51588;53.702;10.208;2023-06-22T06:57:03;8.17;;;4.20;;
64894;SDS011;51588;53.702;10.208;2023-06-22T06:59:29;9.00;;;3.90;;
64894;SDS011;51588;53.702;10.208;2023-06-22T07:01:56;6.07;;;3.80;;
64894;SDS011;51588;53.702;10.208;2023-06-22T07:04:22;6.57;;;3.33;;
64894;SDS011;51588;53.702;10.208;2023-06-22T07:06:49;6.60;;;3.73;;
64894;SDS011;51588;53.702;10.208;2023-06-22T07:09:15;6.87;;;4.27;;
64894;SDS011;51588;53.702;10.208;2023-06-22T07:11:45;6.50;;;3.23;;
64894;SDS011;51588;53.702;10.208;2023-06-22T07:14:11;7.33;;;3.30;;
64894;SDS011;51588;53.702;10.208;2023-06-22T07:16:38;6.00;;;3.60;;
64894;SDS011;51588;53.702;10.208;2023-06-22T07:19:04;9.20;;;3.63;;
64894;SDS011;51588;53.702;10.208;2023-06-22T07:21:30;11.13;;;4.37;;
64894;SDS011;51588;53.702;10.208;2023-06-22T07:23:57;8.53;;;4.03;;
64894;SDS011;51588;53.702;10.208;2023-06-22T07:26:23;6.50;;;4.13;;
64894;SDS011;51588;53.702;10.208;2023-06-22T07:28:51;5.10;;;3.40;;
64894;SDS011;51588;53.702;10.208;2023-06-22T07:31:17;5.40;;;3.27;;
64894;SDS011;51588;53.702;10.208;2023-06-22T07:33:44;9.90;;;3.53;;
64894;SDS011;51588;53.702;10.208;2023-06-22T07:36:10;4.50;;;3.57;;
64894;SDS011;51588;53.702;10.208;2023-06-22T07:38:37;4.73;;;3.73;;
64894;SDS011;51588;53.702;10.208;2023-06-22T07:41:03;5.27;;;3.57;;
64894;SDS011;51588;53.702;10.208;2023-06-22T07:43:30;5.47;;;3.40;;
64894;SDS011;51588;53.702;10.208;2023-06-22T07:45:59;13.23;;;3.73;;
64894;SDS011;51588;53.702;10.208;2023-06-22T07:48:26;3.93;;;2.90;;
64894;SDS011;51588;53.702;10.208;2023-06-22T07:50:52;7.80;;;3.47;;
64894;SDS011;51588;53.702;10.208;2023-06-22T07:53:20;3.93;;;2.93;;
64894;SDS011;51588;53.702;10.208;2023-06-22T07:55:46;3.87;;;3.30;;
64894;SDS011;51588;53.702;10.208;2023-06-22T07:58:12;5.23;;;3.10;;
64894;SDS011;51588;53.702;10.208;2023-06-22T08:00:39;4.23;;;3.40;;
64894;SDS011;51588;53.702;10.208;2023-06-22T08:03:07;6.63;;;3.57;;
64894;SDS011;51588;53.702;10.208;2023-06-22T08:05:33;4.80;;;3.67;;
64894;SDS011;51588;53.702;10.208;2023-06-22T08:07:59;5.80;;;2.80;;
64894;SDS011;51588;53.702;10.208;2023-06-22T08:10:26;7.63;;;3.30;;
64894;SDS011;51588;53.702;10.208;2023-06-22T08:12:52;6.03;;;3.10;;
64894;SDS011;51588;53.702;10.208;2023-06-22T08:15:19;4.07;;;3.03;;
64894;SDS011;51588;53.702;10.208;2023-06-22T08:17:45;4.20;;;3.10;;
64894;SDS011;51588;53.702;10.208;2023-06-22T08:20:13;6.03;;;4.00;;
64894;SDS011;51588;53.702;10.208;2023-06-22T08:22:39;5.67;;;4.07;;
64894;SDS011;51588;53.702;10.208;2023-06-22T08:25:06;6.00;;;3.73;;
64894;SDS011;51588;53.702;10.208;2023-06-22T08:27:33;5.90;;;3.60;;
64894;SDS011;51588;53.702;10.208;2023-06-22T08:30:00;8.63;;;3.73;;
64894;SDS011;51588;53.702;10.208;2023-06-22T08:32:27;12.20;;;3.83;;
64894;SDS011;51588;53.702;10.208;2023-06-22T08:34:53;5.93;;;3.87;;
64894;SDS011;51588;53.702;10.208;2023-06-22T08:37:21;9.80;;;4.00;;
64894;SDS011;51588;53.702;10.208;2023-06-22T08:39:50;6.93;;;3.73;;
64894;SDS011;51588;53.702;10.208;2023-06-22T08:42:16;5.57;;;3.90;;
64894;SDS011;51588;53.702;10.208;2023-06-22T08:44:43;10.07;;;3.60;;
64894;SDS011;51588;53.702;10.208;2023-06-22T08:47:09;7.33;;;3.83;;
64894;SDS011;51588;53.702;10.208;2023-06-22T08:49:35;6.90;;;3.30;;
64894;SDS011;51588;53.702;10.208;2023-06-22T08:52:02;8.53;;;3.83;;
64894;SDS011;51588;53.702;10.208;2023-06-22T08:54:30;7.10;;;3.43;;
64894;SDS011;51588;53.702;10.208;2023-06-22T08:56:58;8.90;;;3.50;;
64894;SDS011;51588;53.702;10.208;2023-06-22T08:59:24;6.00;;;3.50;;
64894;SDS011;51588;53.702;10.208;2023-06-22T09:01:50;10.40;;;3.73;;
64894;SDS011;51588;53.702;10.208;2023-06-22T09:04:17;7.60;;;3.80;;
64894;SDS011;51588;53.702;10.208;2023-06-22T09:06:43;5.63;;;4.00;;
64894;SDS011;51588;53.702;10.208;2023-06-22T09:09:12;5.20;;;3.60;;
64894;SDS011;51588;53.702;10.208;2023-06-22T09:11:39;7.97;;;3.70;;
64894;SDS011;51588;53.702;10.208;2023-06-22T09:14:06;6.80;;;3.10;;
64894;SDS011;51588;53.702;10.208;2023-06-22T09:16:33;5.30;;;3.43;;
64894;SDS011;51588;53.702;10.208;2023-06-22T09:19:00;7.10;;;2.80;;
64894;SDS011;51588;53.702;10.208;2023-06-22T09:21:26;4.43;;;2.93;;
64894;SDS011;51588;53.702;10.208;2023-06-22T09:23:53;16.47;;;3.10;;
64894;SDS011;51588;53.702;10.208;2023-06-22T09:26:20;6.90;;;3.37;;
64894;SDS011;51588;53.702;10.208;2023-06-22T09:28:49;5.80;;;3.33;;
64894;SDS011;51588;53.702;10.208;2023-06-22T09:31:15;4.70;;;3.17;;
64894;SDS011;51588;53.702;10.208;2023-06-22T09:33:42;4.40;;;3.40;;
64894;SDS011;51588;53.702;10.208;2023-06-22T09:36:09;6.50;;;3.83;;
64894;SDS011;51588;53.702;10.208;2023-06-22T09:38:35;4.00;;;3.30;;
64894;SDS011;51588;53.702;10.208;2023-06-22T09:41:02;7.70;;;3.60;;
64894;SDS011;51588;53.702;10.208;2023-06-22T09:43:29;5.90;;;3.20;;
64894;SDS011;51588;53.702;10.208;2023-06-22T09:45:57;4.40;;;2.77;;
64894;SDS011;51588;53.702;10.208;2023-06-22T09:48:23;4.17;;;2.73;;
64894;SDS011;51588;53.702;10.208;2023-06-22T09:50:50;3.40;;;3.10;;
64894;SDS011;51588;53.702;10.208;2023-06-22T09:53:16;5.80;;;3.40;;
64894;SDS011;51588;53.702;10.208;2023-06-22T09:55:42;3.40;;;2.97;;
64894;SDS011;51588;53.702;10.208;2023-06-22T09:58:09;3.43;;;2.87;;
64894;SDS011;51588;53.702;10.208;2023-06-22T10:00:35;4.77;;;3.47;;
64894;SDS011;51588;53.702;10.208;2023-06-22T10:03:03;4.43;;;3.60;;
64894;SDS011;51588;53.702;10.208;2023-06-22T10:05:29;4.87;;;4.03;;
64894;SDS011;51588;53.702;10.208;2023-06-22T10:07:56;7.33;;;4.50;;
64894;SDS011;51588;53.702;10.208;2023-06-22T10:10:23;5.63;;;4.07;;
64894;SDS011;51588;53.702;10.208;2023-06-22T10:12:54;4.90;;;4.03;;
64894;SDS011;51588;53.702;10.208;2023-06-22T10:15:21;6.43;;;3.63;;
64894;SDS011;51588;53.702;10.208;2023-06-22T10:17:47;7.10;;;3.83;;
64894;SDS011;51588;53.702;10.208;2023-06-22T10:20:15;6.47;;;3.70;;
64894;SDS011;51588;53.702;10.208;2023-06-22T10:22:43;5.53;;;3.40;;
64894;SDS011;51588;53.702;10.208;2023-06-22T10:25:11;4.20;;;3.37;;
64894;SDS011;51588;53.702;10.208;2023-06-22T10:27:37;29.80;;;15.70;;
64894;SDS011;51588;53.702;10.208;2023-06-22T10:30:06;20.90;;;12.17;;
64894;SDS011;51588;53.702;10.208;2023-06-22T10:32:32;17.60;;;11.77;;
64894;SDS011;51588;53.702;10.208;2023-06-22T10:34:59;51.53;;;28.03;;
64894;SDS011;51588;53.702;10.208;2023-06-22T10:37:26;53.40;;;30.27;;
64894;SDS011;51588;53.702;10.208;2023-06-22T10:39:53;56.33;;;29.30;;
64894;SDS011;51588;53.702;10.208;2023-06-22T10:42:19;60.77;;;35.20;;
64894;SDS011;51588;53.702;10.208;2023-06-22T10:44:45;54.17;;;32.13;;
64894;SDS011;51588;53.702;10.208;2023-06-22T10:47:12;52.20;;;31.20;;
64894;SDS011;51588;53.702;10.208;2023-06-22T10:49:38;48.70;;;29.60;;
64894;SDS011;51588;53.702;10.208;2023-06-22T10:52:05;42.47;;;25.80;;
64894;SDS011;51588;53.702;10.208;2023-06-22T10:54:33;43.40;;;22.10;;
64894;SDS011;51588;53.702;10.208;2023-06-22T10:57:00;25.30;;;14.03;;
64894;SDS011;51588;53.702;10.208;2023-06-22T10:59:26;24.47;;;15.73;;
64894;SDS011;51588;53.702;10.208;2023-06-22T11:01:54;33.17;;;15.10;;
64894;SDS011;51588;53.702;10.208;2023-06-22T11:04:21;24.40;;;14.50;;
64894;SDS011;51588;53.702;10.208;2023-06-22T11:06:47;26.13;;;14.43;;
64894;SDS011;51588;53.702;10.208;2023-06-22T11:09:14;23.57;;;13.03;;
64894;SDS011;51588;53.702;10.208;2023-06-22T11:11:45;19.47;;;12.13;;
64894;SDS011;51588;53.702;10.208;2023-06-22T11:14:11;19.80;;;10.80;;
64894;SDS011;51588;53.702;10.208;2023-06-22T11:16:37;17.23;;;10.53;;
64894;SDS011;51588;53.702;10.208;2023-06-22T11:19:04;13.50;;;9.07;;
64894;SDS011;51588;53.702;10.208;2023-06-22T11:21:31;14.90;;;9.50;;
64894;SDS011;51588;53.702;10.208;2023-06-22T11:23:57;16.53;;;10.80;;
64894;SDS011;51588;53.702;10.208;2023-06-22T11:26:24;19.87;;;11.57;;
64894;SDS011;51588;53.702;10.208;2023-06-22T11:28:53;15.13;;;9.37;;
64894;SDS011;51588;53.702;10.208;2023-06-22T11:31:20;16.03;;;9.57;;
64894;SDS011;51588;53.702;10.208;2023-06-22T11:33:46;13.43;;;8.57;;
64894;SDS011;51588;53.702;10.208;2023-06-22T11:36:13;12.63;;;8.50;;
64894;SDS011;51588;53.702;10.208;2023-06-22T11:38:40;10.70;;;7.60;;
64894;SDS011;51588;53.702;10.208;2023-06-22T11:41:06;10.03;;;7.27;;
64894;SDS011;51588;53.702;10.208;2023-06-22T11:43:33;12.17;;;8.00;;
64894;SDS011;51588;53.702;10.208;2023-06-22T11:46:00;9.70;;;6.60;;
64894;SDS011;51588;53.702;10.208;2023-06-22T11:48:27;10.70;;;6.90;;
64894;SDS011;51588;53.702;10.208;2023-06-22T11:50:53;9.67;;;6.90;;
64894;SDS011;51588;53.702;10.208;2023-06-22T11:53:20;9.00;;;6.50;;
64894;SDS011;51588;53.702;10.208;2023-06-22T11:55:46;8.23;;;5.50;;
64894;SDS011;51588;53.702;10.208;2023-06-22T11:58:14;9.73;;;6.00;;
64894;SDS011;51588;53.702;10.208;2023-06-22T12:00:40;9.73;;;6.30;;
64894;SDS011;51588;53.702;10.208;2023-06-22T12:03:08;9.30;;;5.57;;
64894;SDS011;51588;53.702;10.208;2023-06-22T12:05:37;7.17;;;4.80;;
64894;SDS011;51588;53.702;10.208;2023-06-22T12:08:03;7.27;;;5.77;;
64894;SDS011;51588;53.702;10.208;2023-06-22T12:10:30;6.93;;;4.97;;
64894;SDS011;51588;53.702;10.208;2023-06-22T12:12:56;10.10;;;5.70;;
64894;SDS011;51588;53.702;10.208;2023-06-22T12:15:25;6.40;;;5.23;;
64894;SDS011;51588;53.702;10.208;2023-06-22T12:17:51;6.03;;;4.90;;
64894;SDS011;51588;53.702;10.208;2023-06-22T12:20:19;6.33;;;5.03;;
64894;SDS011;51588;53.702;10.208;2023-06-22T12:22:45;7.13;;;5.00;;
64894;SDS011;51588;53.702;10.208;2023-06-22T12:25:12;5.20;;;4.53;;
64894;SDS011;51588;53.702;10.208;2023-06-22T12:27:39;7.10;;;4.60;;
64894;SDS011;51588;53.702;10.208;2023-06-22T12:30:05;5.63;;;5.00;;
64894;SDS011;51588;53.702;10.208;2023-06-22T12:32:32;7.73;;;5.50;;
64894;SDS011;51588;53.702;10.208;2023-06-22T12:34:58;10.00;;;4.90;;
64894;SDS011;51588;53.702;10.208;2023-06-22T12:37:26;5.20;;;4.60;;
64894;SDS011;51588;53.702;10.208;2023-06-22T12:39:53;10.67;;;5.53;;
64894;SDS011;51588;53.702;10.208;2023-06-22T12:42:19;7.10;;;5.07;;
64894;SDS011;51588;53.702;10.208;2023-06-22T12:44:46;8.00;;;4.80;;
64894;SDS011;51588;53.702;10.208;2023-06-22T12:47:12;6.37;;;5.07;;
64894;SDS011;51588;53.702;10.208;2023-06-22T12:49:39;5.30;;;4.80;;
64894;SDS011;51588;53.702;10.208;2023-06-22T12:52:08;8.83;;;4.83;;
64894;SDS011;51588;53.702;10.208;2023-06-22T12:54:36;6.80;;;4.63;;
64894;SDS011;51588;53.702;10.208;2023-06-22T12:57:03;6.40;;;4.50;;
64894;SDS011;51588;53.702;10.208;2023-06-22T12:59:29;6.27;;;4.93;;
64894;SDS011;51588;53.702;10.208;2023-06-22T13:01:56;4.90;;;4.40;;
64894;SDS011;51588;53.702;10.208;2023-06-22T13:04:22;9.03;;;5.27;;
64894;SDS011;51588;53.702;10.208;2023-06-22T13:06:48;8.13;;;4.80;;
64894;SDS011;51588;53.702;10.208;2023-06-22T13:09:15;10.70;;;4.87;;
64894;SDS011;51588;53.702;10.208;2023-06-22T13:11:43;7.40;;;4.87;;
64894;SDS011;51588;53.702;10.208;2023-06-22T13:14:09;6.40;;;4.70;;
64894;SDS011;51588;53.702;10.208;2023-06-22T13:16:36;7.57;;;4.53;;
64894;SDS011;51588;53.702;10.208;2023-06-22T13:19:02;9.17;;;4.97;;
64894;SDS011;51588;53.702;10.208;2023-06-22T13:21:29;6.30;;;4.80;;
64894;SDS011;51588;53.702;10.208;2023-06-22T13:23:56;5.47;;;4.73;;
64894;SDS011;51588;53.702;10.208;2023-06-22T13:26:22;13.20;;;5.40;;
64894;SDS011;51588;53.702;10.208;2023-06-22T13:28:50;4.67;;;4.23;;
64894;SDS011;51588;53.702;10.208;2023-06-22T13:31:17;7.50;;;4.80;;
64894;SDS011;51588;53.702;10.208;2023-06-22T13:33:43;7.73;;;4.60;;
64894;SDS011;51588;53.702;10.208;2023-06-22T13:36:12;8.53;;;5.53;;
64894;SDS011;51588;53.702;10.208;2023-06-22T13:38:39;5.30;;;4.80;;
64894;SDS011;51588;53.702;10.208;2023-06-22T13:41:05;5.30;;;4.80;;
64894;SDS011;51588;53.702;10.208;2023-06-22T13:43:32;5.50;;;4.70;;
64894;SDS011;51588;53.702;10.208;2023-06-22T13:45:59;8.13;;;4.60;;
64894;SDS011;51588;53.702;10.208;2023-06-22T13:48:26;8.90;;;4.90;;
64894;SDS011;51588;53.702;10.208;2023-06-22T13:50:53;12.03;;;4.77;;
64894;SDS011;51588;53.702;10.208;2023-06-22T13:53:20;10.20;;;4.80;;
64894;SDS011;51588;53.702;10.208;2023-06-22T13:55:46;8.93;;;4.77;;
64894;SDS011;51588;53.702;10.208;2023-06-22T13:58:12;9.77;;;5.80;;
64894;SDS011;51588;53.702;10.208;2023-06-22T14:00:39;12.73;;;4.87;;
64894;SDS011;51588;53.702;10.208;2023-06-22T14:03:07;40.80;;;9.90;;
64894;SDS011;51588;53.702;10.208;2023-06-22T14:05:33;12.30;;;7.20;;
64894;SDS011;51588;53.702;10.208;2023-06-22T14:07:59;17.93;;;6.60;;
64894;SDS011;51588;53.702;10.208;2023-06-22T14:10:26;10.53;;;6.13;;
64894;SDS011;51588;53.702;10.208;2023-06-22T14:12:52;7.67;;;5.73;;
64894;SDS011;51588;53.702;10.208;2023-06-22T14:15:18;13.73;;;5.80;;
64894;SDS011;51588;53.702;10.208;2023-06-22T14:17:45;7.27;;;5.20;;
64894;SDS011;51588;53.702;10.208;2023-06-22T14:20:13;7.20;;;5.47;;
64894;SDS011;51588;53.702;10.208;2023-06-22T14:22:39;8.43;;;5.37;;
64894;SDS011;51588;53.702;10.208;2023-06-22T14:25:06;7.53;;;5.47;;
64894;SDS011;51588;53.702;10.208;2023-06-22T14:27:32;10.23;;;5.43;;
64894;SDS011;51588;53.702;10.208;2023-06-22T14:29:59;12.40;;;5.60;;